Rio Blanco — D5BO9 — position and weather

sailwx.info

Track history (hours):
 
Tides and Currents Weather Stations Pressure Air Temp Water Temp Dewpoint Dewpoint Depression Visibility Wind Speed Wind Dir Waves Ship Positions

Rio Blanco

Last reported at 2017-Mar-24 03:33 UTC. Time now 2017-Mar-24 06:16 UTC.
Position N 49°50' W 003°18'.

Length 286 m; draft 12.6 m.

Type: Ship (hazmat cat A). MMSI: 636092395.

Date/timePositionNaut miles runAvg speedWind from/ knotsBaromVisibWave heightAir tempDewpointWater temp
2017-Mar-24 03:33N 49°50' W 003°18'1413.7
2017-Mar-24 02:33N 49°57' W 002°59'1413.9
2017-Mar-24 01:33N 50°02' W 002°39'1514.8
2017-Mar-24 00:33N 50°05' W 002°16'1616.0
2017-Mar-23 23:33N 50°10' W 001°52'1716.5
2017-Mar-23 22:33N 50°14' W 001°27'1616.4
2017-Mar-23 21:33N 50°18' W 001°03'2315.4
2017-Mar-23 20:05N 50°24' W 000°28'814.8
2017-Mar-23 19:33N 50°26' W 000°17'1414.5
2017-Mar-23 18:33N 50°31' E 000°05'1414.1
2017-Mar-23 17:33N 50°34' E 000°26'1414.1
2017-Mar-23 16:33N 50°41' E 000°46'1814.6
2017-Mar-23 15:20N 50°51' E 001°10'1216.1
2017-Mar-23 14:33N 50°60' E 001°24'1616.0
2017-Mar-23 13:34N 51°11' E 001°41'1514.7
2017-Mar-23 12:33N 51°23' E 001°54'1413.6
2017-Mar-23 11:33N 51°34' E 002°08'1313.2
2017-Mar-23 10:33N 51°44' E 002°22'1413.1
2017-Mar-23 09:31N 51°54' E 002°36'1413.4
2017-Mar-23 08:29N 52°05' E 002°51'1314.0
2017-Mar-23 07:33N 52°15' E 003°04'1514.6
2017-Mar-23 06:33N 52°27' E 003°18'1515.0
2017-Mar-23 05:33N 52°39' E 003°33'1515.0
2017-Mar-23 04:33N 52°50' E 003°48'1514.7
2017-Mar-23 03:33N 53°01' E 004°05'1414.0
2017-Mar-23 02:33N 53°10' E 004°23'1313.2
2017-Mar-23 01:33N 53°22' E 004°32'1312.6
2017-Mar-23 00:33N 53°31' E 004°47'1513.5
2017-Mar-22 23:28N 53°37' E 005°10'10114.7
2017-Mar-22 16:33N 54°01' E 007°57'1313.1
2017-Mar-22 15:33N 53°60' E 008°19'1313.4
2017-Mar-22 14:33N 53°55' E 008°41'1211.9
2017-Mar-22 13:34N 53°51' E 008°60'1312.6
2017-Mar-22 12:34N 53°50' E 009°21'1514.5
2017-Mar-22 11:33N 53°37' E 009°33'1211.7
2017-Mar-22 10:33N 53°33' E 009°51'2 2.1
2017-Mar-22 09:31N 53°32' E 009°55'0 0.0
2017-Mar-22 08:31N 53°32' E 009°55'0 0.0
2017-Mar-22 07:31N 53°32' E 009°55'0 0.0
2017-Mar-22 06:31N 53°32' E 009°55'0 0.0
2017-Mar-22 05:31N 53°32' E 009°55'0 0.0
2017-Mar-22 04:31N 53°32' E 009°55'0 0.0
2017-Mar-22 03:31N 53°32' E 009°55'0 0.0
2017-Mar-22 02:31N 53°32' E 009°55'0 0.0
2017-Mar-22 01:31N 53°32' E 009°55'0 0.0
2017-Mar-22 00:31N 53°32' E 009°55'0 0.0
2017-Mar-21 23:31N 53°32' E 009°55'0 0.0
2017-Mar-21 22:31N 53°32' E 009°55'0 0.0
2017-Mar-21 21:31N 53°32' E 009°55'0 0.0
2017-Mar-21 20:31N 53°32' E 009°55'0 0.0
2017-Mar-21 19:31N 53°32' E 009°55'0 0.0
2017-Mar-21 18:31N 53°32' E 009°55'0 0.0
2017-Mar-21 17:31N 53°32' E 009°55'0 0.0
2017-Mar-21 16:31N 53°32' E 009°55'0 0.0
2017-Mar-21 15:31N 53°32' E 009°55'0 0.0
2017-Mar-21 14:31N 53°32' E 009°55'0 0.0
2017-Mar-21 13:31N 53°32' E 009°55'0 0.0
2017-Mar-21 12:31N 53°32' E 009°55'0 0.0
2017-Mar-21 11:31N 53°32' E 009°55'0 0.0
2017-Mar-21 10:31N 53°32' E 009°55'0 0.0
2017-Mar-21 09:31N 53°32' E 009°55'0 0.0
2017-Mar-21 08:31N 53°32' E 009°55'0 0.0
2017-Mar-21 07:33N 53°32' E 009°55'0 0.0
2017-Mar-21 06:33N 53°32' E 009°55'0 0.0
2017-Mar-21 05:33N 53°32' E 009°55'5 5.4
2017-Mar-21 04:33N 53°34' E 009°46'1212.1
2017-Mar-21 03:33N 53°41' E 009°30'1515.4
2017-Mar-21 02:34N 53°53' E 009°13'1212.0
2017-Mar-21 01:33N 53°50' E 008°53'1211.5
2017-Mar-21 00:33N 53°57' E 008°37'1616.0
2017-Mar-20 23:33N 53°60' E 008°10'1313.3
2017-Mar-20 22:33N 53°57' E 007°48'1514.7
2017-Mar-20 21:32N 53°54' E 007°23'9510.6
2017-Mar-20 12:33N 53°26' E 004°50'2110.6
2017-Mar-20 10:33N 53°09' E 004°30'1111.1
2017-Mar-20 09:33N 52°59' E 004°21'1313.4
2017-Mar-20 08:33N 52°47' E 004°11'1313.2
2017-Mar-20 07:33N 52°37' E 003°57'1313.3
2017-Mar-20 06:33N 52°28' E 003°41'3712.3
2017-Mar-20 03:33N 51°53' E 003°22'1111.4
2017-Mar-20 02:33N 51°43' E 003°14'1514.9
2017-Mar-20 01:33N 51°29' E 003°03'9 9.3
2017-Mar-20 00:33N 51°25' E 003°16'1212.4
2017-Mar-19 23:33N 51°26' E 003°36'1212.4
2017-Mar-19 22:33N 51°22' E 003°55'1110.4
2017-Mar-19 21:33N 51°24' E 004°11'7 7.2
2017-Mar-19 20:33N 51°17' E 004°16'0 0.0
2017-Mar-19 19:23N 51°17' E 004°16'0 0.0
2017-Mar-19 18:32N 51°17' E 004°16'0 0.0
2017-Mar-19 17:29N 51°17' E 004°16'0 0.0
2017-Mar-19 16:32N 51°17' E 004°16'0 0.0
2017-Mar-19 15:17N 51°17' E 004°16'0 0.0
2017-Mar-19 14:29N 51°17' E 004°16'0 0.0
2017-Mar-19 13:26N 51°17' E 004°16'0 0.0
2017-Mar-19 12:32N 51°17' E 004°16'0 0.0
2017-Mar-19 11:26N 51°17' E 004°16'0 0.0
2017-Mar-19 10:32N 51°17' E 004°16'0 0.0
2017-Mar-19 09:32N 51°17' E 004°16'0 0.0
2017-Mar-19 08:32N 51°17' E 004°16'0 0.0
2017-Mar-19 07:32N 51°17' E 004°16'0 0.0
2017-Mar-19 06:32N 51°17' E 004°16'0 0.0
2017-Mar-19 05:29N 51°17' E 004°16'0 0.0
2017-Mar-19 04:32N 51°17' E 004°16'0 0.0
2017-Mar-19 03:32N 51°17' E 004°16'0 0.0
2017-Mar-19 02:32N 51°17' E 004°16'0 0.0
2017-Mar-19 01:32N 51°17' E 004°16'0 0.0
2017-Mar-19 00:32N 51°17' E 004°16'0 0.0
2017-Mar-18 23:32N 51°17' E 004°16'0 0.0
2017-Mar-18 22:34N 51°17' E 004°16'3 3.3
2017-Mar-18 21:34N 51°21' E 004°16'9 9.0
2017-Mar-18 20:33N 51°23' E 004°02'8 8.0
2017-Mar-18 19:33N 51°21' E 003°50'1010.4
2017-Mar-18 18:34N 51°26' E 003°35'1514.9
2017-Mar-18 17:33N 51°24' E 003°12'1817.6
2017-Mar-18 16:34N 51°22' E 002°44'1514.5
2017-Mar-18 15:33N 51°20' E 002°21'1515.1
2017-Mar-18 14:34N 51°25' E 001°58'1616.0
2017-Mar-18 13:34N 51°39' E 001°45'1414.3
2017-Mar-18 12:33N 51°52' E 001°34'1010.4
2017-Mar-18 11:34N 51°56' E 001°19'2 1.9
2017-Mar-18 10:32N 51°58' E 001°18'0 0.0
2017-Mar-18 09:32N 51°58' E 001°18'0 0.0
2017-Mar-18 08:32N 51°58' E 001°18'0 0.0
2017-Mar-18 07:32N 51°58' E 001°18'0 0.0
2017-Mar-18 06:32N 51°58' E 001°18'0 0.0
2017-Mar-18 05:32N 51°58' E 001°18'0 0.0
2017-Mar-18 04:32N 51°58' E 001°18'0 0.0
2017-Mar-18 03:32N 51°58' E 001°18'0 0.0
2017-Mar-18 02:32N 51°58' E 001°18'0 0.0
2017-Mar-18 01:32N 51°58' E 001°18'0 0.0
2017-Mar-18 00:32N 51°58' E 001°18'0 0.0
2017-Mar-17 23:32N 51°58' E 001°18'0 0.0
2017-Mar-17 22:32N 51°58' E 001°18'0 0.0
2017-Mar-17 21:32N 51°58' E 001°18'0 0.0
2017-Mar-17 20:32N 51°58' E 001°18'0 0.0
2017-Mar-17 19:32N 51°58' E 001°18'0 0.0
2017-Mar-17 18:32N 51°58' E 001°18'0 0.0
2017-Mar-17 17:32N 51°58' E 001°18'0 0.0
2017-Mar-17 16:32N 51°58' E 001°18'0 0.0
2017-Mar-17 15:32N 51°58' E 001°18'0 0.0
2017-Mar-17 14:32N 51°58' E 001°18'0 0.0
2017-Mar-17 13:32N 51°58' E 001°18'0 0.0
2017-Mar-17 12:32N 51°58' E 001°18'0 0.0
2017-Mar-17 11:32N 51°58' E 001°18'0 0.0
2017-Mar-17 10:32N 51°58' E 001°18'0 0.0
2017-Mar-17 09:32N 51°58' E 001°18'0 0.0
2017-Mar-17 08:32N 51°58' E 001°18'0 0.0
2017-Mar-17 07:32N 51°58' E 001°18'0 0.0
2017-Mar-17 06:32N 51°58' E 001°18'0 0.0
2017-Mar-17 05:32N 51°58' E 001°18'0 0.0
2017-Mar-17 04:32N 51°58' E 001°18'0 0.0
2017-Mar-17 03:32N 51°58' E 001°18'0 0.0
2017-Mar-17 02:32N 51°58' E 001°18'0 0.0
2017-Mar-17 01:32N 51°58' E 001°18'0 0.0
2017-Mar-17 00:32N 51°58' E 001°18'0 0.0
2017-Mar-16 23:32N 51°58' E 001°18'0 0.0
2017-Mar-16 22:33N 51°58' E 001°18'0 0.0
2017-Mar-16 21:33N 51°58' E 001°18'3 2.6
2017-Mar-16 20:33N 51°55' E 001°20'1111.5
2017-Mar-16 19:33N 51°51' E 001°38'6 6.0
2017-Mar-16 18:33N 51°50' E 001°47'1414.3
2017-Mar-16 17:33N 51°36' E 001°52'1414.0
2017-Mar-16 16:33N 51°23' E 002°01'1616.3
2017-Mar-16 15:33N 51°10' E 001°45'1817.6
2017-Mar-16 14:33N 50°56' E 001°28'1818.0
2017-Mar-16 13:33N 50°40' E 001°15'1818.4
2017-Mar-16 12:33N 50°30' E 000°50'2121.1
2017-Mar-16 11:33N 50°24' E 000°19'2322.7
2017-Mar-16 10:33N 50°18' W 000°15'2323.2
2017-Mar-16 09:33N 50°11' W 000°50'2322.9
2017-Mar-16 08:34N 50°05' W 001°25'2221.8
2017-Mar-16 07:33N 50°00' W 001°58'2120.4
2017-Mar-16 06:33N 49°54' W 002°28'2019.9
2017-Mar-16 05:33N 49°48' W 002°57'2019.6
2017-Mar-16 04:33N 49°39' W 003°24'1919.4
2017-Mar-16 03:33N 49°30' W 003°50'1919.2
2017-Mar-16 02:33N 49°20' W 004°15'1918.8
2017-Mar-16 01:33N 49°10' W 004°40'1818.2
2017-Mar-16 00:33N 49°00' W 005°04'1817.9
2017-Mar-15 23:33N 48°50' W 005°26'1817.9
2017-Mar-15 22:33N 48°36' W 005°43'1818.3
2017-Mar-15 21:33N 48°20' W 005°56'1918.8
2017-Mar-15 20:33N 48°04' W 006°10'1919.2
2017-Mar-15 19:33N 47°47' W 006°23'2119.6
2017-Mar-15 18:30N 47°29' W 006°38'1121.5
2017-Mar-15 18:00N 47°18' W 006°42'22218.5 090 / 201028.610.8 12.6 2.712.0
2017-Mar-15 06:00N 44°00' W 009°06'21818.2 090 / 321026.4 5.4 13.9 8.913.0
2017-Mar-14 18:00N 40°24' W 009°48'4311.9 360 / 151022.210.8 21.211.214.0
2017-Mar-14 14:20N 39°41' W 009°52'1518.6
2017-Mar-14 13:33N 39°26' W 009°52'1918.6
2017-Mar-14 12:33N 39°08' W 009°52'1918.7
2017-Mar-14 11:34N 38°49' W 009°53'1919.4
2017-Mar-14 10:33N 38°30' W 009°50'1818.4
2017-Mar-14 09:33N 38°12' W 009°45'1917.8
2017-Mar-14 08:30N 37°53' W 009°39'4317.2
2017-Mar-14 06:00N 37°12' W 009°24'   360 / 251017.510.8 16.6 7.215.0
Track history (hours):
 
Tides and Currents Weather Stations Pressure Air Temp Water Temp Dewpoint Dewpoint Depression Visibility Wind Speed Wind Dir Waves Ship Positions

Rio Blanco

Last reported at 2017-Mar-24 03:33 UTC. Time now 2017-Mar-24 06:16 UTC.
Position N 49°50' W 003°18'.

Length 286 m; draft 12.6 m.

Type: Ship (hazmat cat A). MMSI: 636092395.

Date/timePositionNaut miles runAvg speedWind from/ knotsBaromVisibWave heightAir tempDewpointWater temp
2017-Mar-24 03:33N 49°50' W 003°18'1413.7
2017-Mar-24 02:33N 49°57' W 002°59'1413.9
2017-Mar-24 01:33N 50°02' W 002°39'1514.8
2017-Mar-24 00:33N 50°05' W 002°16'1616.0
2017-Mar-23 23:33N 50°10' W 001°52'1716.5
2017-Mar-23 22:33N 50°14' W 001°27'1616.4
2017-Mar-23 21:33N 50°18' W 001°03'2315.4
2017-Mar-23 20:05N 50°24' W 000°28'814.8
2017-Mar-23 19:33N 50°26' W 000°17'1414.5
2017-Mar-23 18:33N 50°31' E 000°05'1414.1
2017-Mar-23 17:33N 50°34' E 000°26'1414.1
2017-Mar-23 16:33N 50°41' E 000°46'1814.6
2017-Mar-23 15:20N 50°51' E 001°10'1216.1
2017-Mar-23 14:33N 50°60' E 001°24'1616.0
2017-Mar-23 13:34N 51°11' E 001°41'1514.7
2017-Mar-23 12:33N 51°23' E 001°54'1413.6
2017-Mar-23 11:33N 51°34' E 002°08'1313.2
2017-Mar-23 10:33N 51°44' E 002°22'1413.1
2017-Mar-23 09:31N 51°54' E 002°36'1413.4
2017-Mar-23 08:29N 52°05' E 002°51'1314.0
2017-Mar-23 07:33N 52°15' E 003°04'1514.6
2017-Mar-23 06:33N 52°27' E 003°18'1515.0
2017-Mar-23 05:33N 52°39' E 003°33'1515.0
2017-Mar-23 04:33N 52°50' E 003°48'1514.7
2017-Mar-23 03:33N 53°01' E 004°05'1414.0
2017-Mar-23 02:33N 53°10' E 004°23'1313.2
2017-Mar-23 01:33N 53°22' E 004°32'1312.6
2017-Mar-23 00:33N 53°31' E 004°47'1513.5
2017-Mar-22 23:28N 53°37' E 005°10'10114.7
2017-Mar-22 16:33N 54°01' E 007°57'1313.1
2017-Mar-22 15:33N 53°60' E 008°19'1313.4
2017-Mar-22 14:33N 53°55' E 008°41'1211.9
2017-Mar-22 13:34N 53°51' E 008°60'1312.6
2017-Mar-22 12:34N 53°50' E 009°21'1514.5
2017-Mar-22 11:33N 53°37' E 009°33'1211.7
2017-Mar-22 10:33N 53°33' E 009°51'2 2.1
2017-Mar-22 09:31N 53°32' E 009°55'0 0.0
2017-Mar-22 08:31N 53°32' E 009°55'0 0.0
2017-Mar-22 07:31N 53°32' E 009°55'0 0.0
2017-Mar-22 06:31N 53°32' E 009°55'0 0.0
2017-Mar-22 05:31N 53°32' E 009°55'0 0.0
2017-Mar-22 04:31N 53°32' E 009°55'0 0.0
2017-Mar-22 03:31N 53°32' E 009°55'0 0.0
2017-Mar-22 02:31N 53°32' E 009°55'0 0.0
2017-Mar-22 01:31N 53°32' E 009°55'0 0.0
2017-Mar-22 00:31N 53°32' E 009°55'0 0.0
2017-Mar-21 23:31N 53°32' E 009°55'0 0.0
2017-Mar-21 22:31N 53°32' E 009°55'0 0.0
2017-Mar-21 21:31N 53°32' E 009°55'0 0.0
2017-Mar-21 20:31N 53°32' E 009°55'0 0.0
2017-Mar-21 19:31N 53°32' E 009°55'0 0.0
2017-Mar-21 18:31N 53°32' E 009°55'0 0.0
2017-Mar-21 17:31N 53°32' E 009°55'0 0.0
2017-Mar-21 16:31N 53°32' E 009°55'0 0.0
2017-Mar-21 15:31N 53°32' E 009°55'0 0.0
2017-Mar-21 14:31N 53°32' E 009°55'0 0.0
2017-Mar-21 13:31N 53°32' E 009°55'0 0.0
2017-Mar-21 12:31N 53°32' E 009°55'0 0.0
2017-Mar-21 11:31N 53°32' E 009°55'0 0.0
2017-Mar-21 10:31N 53°32' E 009°55'0 0.0
2017-Mar-21 09:31N 53°32' E 009°55'0 0.0
2017-Mar-21 08:31N 53°32' E 009°55'0 0.0
2017-Mar-21 07:33N 53°32' E 009°55'0 0.0
2017-Mar-21 06:33N 53°32' E 009°55'0 0.0
2017-Mar-21 05:33N 53°32' E 009°55'5 5.4
2017-Mar-21 04:33N 53°34' E 009°46'1212.1
2017-Mar-21 03:33N 53°41' E 009°30'1515.4
2017-Mar-21 02:34N 53°53' E 009°13'1212.0
2017-Mar-21 01:33N 53°50' E 008°53'1211.5
2017-Mar-21 00:33N 53°57' E 008°37'1616.0
2017-Mar-20 23:33N 53°60' E 008°10'1313.3
2017-Mar-20 22:33N 53°57' E 007°48'1514.7
2017-Mar-20 21:32N 53°54' E 007°23'9510.6
2017-Mar-20 12:33N 53°26' E 004°50'2110.6
2017-Mar-20 10:33N 53°09' E 004°30'1111.1
2017-Mar-20 09:33N 52°59' E 004°21'1313.4
2017-Mar-20 08:33N 52°47' E 004°11'1313.2
2017-Mar-20 07:33N 52°37' E 003°57'1313.3
2017-Mar-20 06:33N 52°28' E 003°41'3712.3
2017-Mar-20 03:33N 51°53' E 003°22'1111.4
2017-Mar-20 02:33N 51°43' E 003°14'1514.9
2017-Mar-20 01:33N 51°29' E 003°03'9 9.3
2017-Mar-20 00:33N 51°25' E 003°16'1212.4
2017-Mar-19 23:33N 51°26' E 003°36'1212.4
2017-Mar-19 22:33N 51°22' E 003°55'1110.4
2017-Mar-19 21:33N 51°24' E 004°11'7 7.2
2017-Mar-19 20:33N 51°17' E 004°16'0 0.0
2017-Mar-19 19:23N 51°17' E 004°16'0 0.0
2017-Mar-19 18:32N 51°17' E 004°16'0 0.0
2017-Mar-19 17:29N 51°17' E 004°16'0 0.0
2017-Mar-19 16:32N 51°17' E 004°16'0 0.0
2017-Mar-19 15:17N 51°17' E 004°16'0 0.0
2017-Mar-19 14:29N 51°17' E 004°16'0 0.0
2017-Mar-19 13:26N 51°17' E 004°16'0 0.0
2017-Mar-19 12:32N 51°17' E 004°16'0 0.0
2017-Mar-19 11:26N 51°17' E 004°16'0 0.0
2017-Mar-19 10:32N 51°17' E 004°16'0 0.0
2017-Mar-19 09:32N 51°17' E 004°16'0 0.0
2017-Mar-19 08:32N 51°17' E 004°16'0 0.0
2017-Mar-19 07:32N 51°17' E 004°16'0 0.0
2017-Mar-19 06:32N 51°17' E 004°16'0 0.0
2017-Mar-19 05:29N 51°17' E 004°16'0 0.0
2017-Mar-19 04:32N 51°17' E 004°16'0 0.0
2017-Mar-19 03:32N 51°17' E 004°16'0 0.0
2017-Mar-19 02:32N 51°17' E 004°16'0 0.0
2017-Mar-19 01:32N 51°17' E 004°16'0 0.0
2017-Mar-19 00:32N 51°17' E 004°16'0 0.0
2017-Mar-18 23:32N 51°17' E 004°16'0 0.0
2017-Mar-18 22:34N 51°17' E 004°16'3 3.3
2017-Mar-18 21:34N 51°21' E 004°16'9 9.0
2017-Mar-18 20:33N 51°23' E 004°02'8 8.0
2017-Mar-18 19:33N 51°21' E 003°50'1010.4
2017-Mar-18 18:34N 51°26' E 003°35'1514.9
2017-Mar-18 17:33N 51°24' E 003°12'1817.6
2017-Mar-18 16:34N 51°22' E 002°44'1514.5
2017-Mar-18 15:33N 51°20' E 002°21'1515.1
2017-Mar-18 14:34N 51°25' E 001°58'1616.0
2017-Mar-18 13:34N 51°39' E 001°45'1414.3
2017-Mar-18 12:33N 51°52' E 001°34'1010.4
2017-Mar-18 11:34N 51°56' E 001°19'2 1.9
2017-Mar-18 10:32N 51°58' E 001°18'0 0.0
2017-Mar-18 09:32N 51°58' E 001°18'0 0.0
2017-Mar-18 08:32N 51°58' E 001°18'0 0.0
2017-Mar-18 07:32N 51°58' E 001°18'0 0.0
2017-Mar-18 06:32N 51°58' E 001°18'0 0.0
2017-Mar-18 05:32N 51°58' E 001°18'0 0.0
2017-Mar-18 04:32N 51°58' E 001°18'0 0.0
2017-Mar-18 03:32N 51°58' E 001°18'0 0.0
2017-Mar-18 02:32N 51°58' E 001°18'0 0.0
2017-Mar-18 01:32N 51°58' E 001°18'0 0.0
2017-Mar-18 00:32N 51°58' E 001°18'0 0.0
2017-Mar-17 23:32N 51°58' E 001°18'0 0.0
2017-Mar-17 22:32N 51°58' E 001°18'0 0.0
2017-Mar-17 21:32N 51°58' E 001°18'0 0.0
2017-Mar-17 20:32N 51°58' E 001°18'0 0.0
2017-Mar-17 19:32N 51°58' E 001°18'0 0.0
2017-Mar-17 18:32N 51°58' E 001°18'0 0.0
2017-Mar-17 17:32N 51°58' E 001°18'0 0.0
2017-Mar-17 16:32N 51°58' E 001°18'0 0.0
2017-Mar-17 15:32N 51°58' E 001°18'0 0.0
2017-Mar-17 14:32N 51°58' E 001°18'0 0.0
2017-Mar-17 13:32N 51°58' E 001°18'0 0.0
2017-Mar-17 12:32N 51°58' E 001°18'0 0.0
2017-Mar-17 11:32N 51°58' E 001°18'0 0.0
2017-Mar-17 10:32N 51°58' E 001°18'0 0.0
2017-Mar-17 09:32N 51°58' E 001°18'0 0.0
2017-Mar-17 08:32N 51°58' E 001°18'0 0.0
2017-Mar-17 07:32N 51°58' E 001°18'0 0.0
2017-Mar-17 06:32N 51°58' E 001°18'0 0.0
2017-Mar-17 05:32N 51°58' E 001°18'0 0.0
2017-Mar-17 04:32N 51°58' E 001°18'0 0.0
2017-Mar-17 03:32N 51°58' E 001°18'0 0.0
2017-Mar-17 02:32N 51°58' E 001°18'0 0.0
2017-Mar-17 01:32N 51°58' E 001°18'0 0.0
2017-Mar-17 00:32N 51°58' E 001°18'0 0.0
2017-Mar-16 23:32N 51°58' E 001°18'0 0.0
2017-Mar-16 22:33N 51°58' E 001°18'0 0.0
2017-Mar-16 21:33N 51°58' E 001°18'3 2.6
2017-Mar-16 20:33N 51°55' E 001°20'1111.5
2017-Mar-16 19:33N 51°51' E 001°38'6 6.0
2017-Mar-16 18:33N 51°50' E 001°47'1414.3
2017-Mar-16 17:33N 51°36' E 001°52'1414.0
2017-Mar-16 16:33N 51°23' E 002°01'1616.3
2017-Mar-16 15:33N 51°10' E 001°45'1817.6
2017-Mar-16 14:33N 50°56' E 001°28'1818.0
2017-Mar-16 13:33N 50°40' E 001°15'1818.4
2017-Mar-16 12:33N 50°30' E 000°50'2121.1
2017-Mar-16 11:33N 50°24' E 000°19'2322.7
2017-Mar-16 10:33N 50°18' W 000°15'2323.2
2017-Mar-16 09:33N 50°11' W 000°50'2322.9
2017-Mar-16 08:34N 50°05' W 001°25'2221.8
2017-Mar-16 07:33N 50°00' W 001°58'2120.4
2017-Mar-16 06:33N 49°54' W 002°28'2019.9
2017-Mar-16 05:33N 49°48' W 002°57'2019.6
2017-Mar-16 04:33N 49°39' W 003°24'1919.4
2017-Mar-16 03:33N 49°30' W 003°50'1919.2
2017-Mar-16 02:33N 49°20' W 004°15'1918.8
2017-Mar-16 01:33N 49°10' W 004°40'1818.2
2017-Mar-16 00:33N 49°00' W 005°04'1817.9
2017-Mar-15 23:33N 48°50' W 005°26'1817.9
2017-Mar-15 22:33N 48°36' W 005°43'1818.3
2017-Mar-15 21:33N 48°20' W 005°56'1918.8
2017-Mar-15 20:33N 48°04' W 006°10'1919.2
2017-Mar-15 19:33N 47°47' W 006°23'2119.6
2017-Mar-15 18:30N 47°29' W 006°38'1121.5
2017-Mar-15 18:00N 47°18' W 006°42'22218.5 090 / 201028.610.8 12.6 2.712.0
2017-Mar-15 06:00N 44°00' W 009°06'21818.2 090 / 321026.4 5.4 13.9 8.913.0
2017-Mar-14 18:00N 40°24' W 009°48'4311.9 360 / 151022.210.8 21.211.214.0
2017-Mar-14 14:20N 39°41' W 009°52'1518.6
2017-Mar-14 13:33N 39°26' W 009°52'1918.6
2017-Mar-14 12:33N 39°08' W 009°52'1918.7
2017-Mar-14 11:34N 38°49' W 009°53'1919.4
2017-Mar-14 10:33N 38°30' W 009°50'1818.4
2017-Mar-14 09:33N 38°12' W 009°45'1917.8
2017-Mar-14 08:30N 37°53' W 009°39'4317.2
2017-Mar-14 06:00N 37°12' W 009°24'   360 / 251017.510.8 16.6 7.215.0

Dump ship's entire track history